createdAt,value
2022-10-23T00:01:40.923Z,4.22
2022-10-23T00:04:17.944Z,3.52
2022-10-23T00:06:51.372Z,4.42
2022-10-23T00:09:26.467Z,4.90
2022-10-23T00:11:59.235Z,4.60
2022-10-23T00:14:32.114Z,4.75
2022-10-23T00:17:05.062Z,4.15
2022-10-23T00:19:38.604Z,4.33
2022-10-23T00:22:11.760Z,4.30
2022-10-23T00:24:45.014Z,4.40
2022-10-23T00:27:17.782Z,4.87
2022-10-23T00:29:50.864Z,4.45
2022-10-23T00:32:24.066Z,4.72
2022-10-23T00:34:57.222Z,4.87
2022-10-23T00:37:30.669Z,5.42
2022-10-23T00:40:03.877Z,4.78
2022-10-23T00:42:37.464Z,5.17
2022-10-23T00:45:24.419Z,4.60
2022-10-23T00:47:57.722Z,4.80
2022-10-23T00:50:33.655Z,5.53
2022-10-23T00:53:07.255Z,4.60
2022-10-23T00:55:41.471Z,4.87
2022-10-23T01:00:57.167Z,4.87
2022-10-23T01:03:31.822Z,5.03
2022-10-23T01:06:27.657Z,5.25
2022-10-23T01:09:22.406Z,4.72
2022-10-23T01:12:10.562Z,4.47
2022-10-23T01:15:16.918Z,4.90
2022-10-23T01:18:00.286Z,4.50
2022-10-23T01:20:46.155Z,4.78
2022-10-23T01:23:44.924Z,4.87
2022-10-23T01:26:34.356Z,4.90
2022-10-23T01:29:30.334Z,5.05
2022-10-23T01:32:17.316Z,5.17
2022-10-23T01:34:55.588Z,4.78
2022-10-23T01:37:44.237Z,5.70
2022-10-23T01:40:24.986Z,4.95
2022-10-23T01:43:03.364Z,5.15
2022-10-23T01:45:55.984Z,5.85
2022-10-23T01:48:31.474Z,4.65
2022-10-23T01:51:07.702Z,4.70
2022-10-23T01:53:43.354Z,5.33
2022-10-23T01:56:21.637Z,4.85
2022-10-23T01:58:56.574Z,5.40
2022-10-23T02:01:32.398Z,5.40
2022-10-23T02:04:08.274Z,4.90
2022-10-23T02:06:41.632Z,4.53
2022-10-23T02:09:15.210Z,5.15
2022-10-23T02:11:58.299Z,5.85
2022-10-23T02:14:55.653Z,5.35
2022-10-23T02:18:03.152Z,4.90
2022-10-23T02:20:49.722Z,4.72
2022-10-23T02:23:35.055Z,5.03
2022-10-23T02:26:19.117Z,4.78
2022-10-23T02:28:57.778Z,5.65
2022-10-23T02:31:30.632Z,5.70
2022-10-23T02:34:04.475Z,4.70
2022-10-23T02:36:38.521Z,4.80
2022-10-23T02:39:12.108Z,4.62
2022-10-23T02:41:48.665Z,5.05
2022-10-23T02:44:28.769Z,4.80
2022-10-23T02:47:15.627Z,5.10
2022-10-23T02:50:02.305Z,4.95
2022-10-23T02:52:55.029Z,5.33
2022-10-23T02:56:07.452Z,5.05
2022-10-23T02:59:05.570Z,4.60
2022-10-23T03:01:58.396Z,5.50
2022-10-23T03:04:32.125Z,5.28
2022-10-23T03:07:05.532Z,4.55
2022-10-23T03:09:39.483Z,4.75
2022-10-23T03:12:12.504Z,5.47
2022-10-23T03:14:46.253Z,5.40
2022-10-23T03:17:19.819Z,5.17
2022-10-23T03:19:52.997Z,5.67
2022-10-23T03:22:26.857Z,5.22
2022-10-23T03:25:00.069Z,5.37
2022-10-23T03:27:35.431Z,5.95
2022-10-23T03:30:12.502Z,4.62
2022-10-23T03:32:46.319Z,4.55
2022-10-23T03:35:19.763Z,4.67
2022-10-23T03:37:52.699Z,4.80
2022-10-23T03:40:25.747Z,5.53
2022-10-23T03:42:59.128Z,5.30
2022-10-23T03:45:33.742Z,4.70
2022-10-23T03:48:09.017Z,4.53
2022-10-23T03:50:42.136Z,5.58
2022-10-23T03:53:17.000Z,4.78
2022-10-23T03:55:50.386Z,5.12
2022-10-23T03:58:23.593Z,5.65
2022-10-23T04:00:56.594Z,5.03
2022-10-23T04:03:29.443Z,5.75
2022-10-23T04:06:03.049Z,5.17
2022-10-23T04:08:37.511Z,6.05
2022-10-23T04:11:14.070Z,5.00
2022-10-23T04:13:55.574Z,6.30
2022-10-23T04:16:29.310Z,5.72
2022-10-23T04:21:36.024Z,5.65
2022-10-23T04:24:09.485Z,5.53
2022-10-23T04:29:16.394Z,5.50
2022-10-23T04:31:50.331Z,4.90
2022-10-23T04:34:23.419Z,5.17
2022-10-23T04:36:58.035Z,5.28
2022-10-23T04:39:31.137Z,5.65
2022-10-23T04:42:04.274Z,5.28
2022-10-23T04:44:39.191Z,5.35
2022-10-23T04:47:12.907Z,6.03
2022-10-23T04:49:47.363Z,6.20
2022-10-23T04:52:26.655Z,5.75
2022-10-23T04:55:11.347Z,5.92
2022-10-23T04:57:48.526Z,6.42
2022-10-23T05:00:23.539Z,6.60
2022-10-23T05:02:58.735Z,6.37
2022-10-23T05:05:33.500Z,6.08
2022-10-23T05:08:17.903Z,7.12
2022-10-23T05:10:51.848Z,6.72
2022-10-23T05:13:25.208Z,7.37
2022-10-23T05:16:00.817Z,6.10
2022-10-23T05:18:41.908Z,6.00
2022-10-23T05:21:26.197Z,6.00
2022-10-23T05:26:34.937Z,6.03
2022-10-23T05:29:09.450Z,6.30
2022-10-23T05:31:43.345Z,6.65
2022-10-23T05:34:18.677Z,6.85
2022-10-23T05:36:52.820Z,5.92
2022-10-23T05:39:27.492Z,6.03
2022-10-23T05:42:02.013Z,6.50
2022-10-23T05:44:35.773Z,5.90
2022-10-23T05:47:26.014Z,7.08
2022-10-23T05:50:10.429Z,8.70
2022-10-23T05:52:51.798Z,6.78
2022-10-23T05:55:40.258Z,7.87
2022-10-23T05:58:18.010Z,6.72
2022-10-23T06:01:13.879Z,9.25
2022-10-23T06:03:48.604Z,7.20
2022-10-23T06:08:56.474Z,5.37
2022-10-23T06:11:31.135Z,6.35
2022-10-23T06:14:06.209Z,7.40
2022-10-23T06:16:40.373Z,6.22
2022-10-23T06:19:14.682Z,5.80
2022-10-23T06:21:48.451Z,6.05
2022-10-23T06:24:22.027Z,5.55
2022-10-23T06:26:56.973Z,6.55
2022-10-23T06:29:41.904Z,6.70
2022-10-23T06:32:14.850Z,7.35
2022-10-23T06:34:49.416Z,7.67
2022-10-23T06:37:22.861Z,6.45
2022-10-23T06:39:57.695Z,6.05
2022-10-23T06:42:35.991Z,5.22
2022-10-23T06:45:10.942Z,4.80
2022-10-23T06:47:54.073Z,4.42
2022-10-23T06:50:44.975Z,4.83
2022-10-23T06:53:20.220Z,4.72
2022-10-23T06:56:02.864Z,4.30
2022-10-23T06:58:38.661Z,3.90
2022-10-23T07:01:21.002Z,3.92
2022-10-23T07:03:55.065Z,3.70
2022-10-23T07:06:29.644Z,3.87
2022-10-23T07:09:04.960Z,3.92
2022-10-23T07:11:55.986Z,3.60
2022-10-23T07:14:37.686Z,3.10
2022-10-23T07:17:12.426Z,3.55
2022-10-23T07:19:45.792Z,3.17
2022-10-23T07:22:21.341Z,3.12
2022-10-23T07:24:57.393Z,3.30
2022-10-23T07:27:32.943Z,2.98
2022-10-23T07:30:08.562Z,3.02
2022-10-23T07:32:43.494Z,3.33
2022-10-23T07:35:38.511Z,2.62
2022-10-23T07:38:14.904Z,2.55
2022-10-23T07:40:50.168Z,3.22
2022-10-23T07:45:57.404Z,3.72
2022-10-23T07:48:39.503Z,3.02
2022-10-23T07:51:17.630Z,3.00
2022-10-23T07:53:52.499Z,2.65
2022-10-23T07:56:43.914Z,2.62
2022-10-23T07:59:21.482Z,3.10
2022-10-23T08:01:59.242Z,2.60
2022-10-23T08:04:37.339Z,3.20
2022-10-23T08:07:14.923Z,2.65
2022-10-23T08:09:48.982Z,2.12
2022-10-23T08:12:23.120Z,2.17
2022-10-23T08:14:56.508Z,2.90
2022-10-23T08:17:30.831Z,2.67
2022-10-23T08:20:06.233Z,2.95
2022-10-23T08:22:43.029Z,3.10
2022-10-23T08:25:16.574Z,3.15
2022-10-23T08:27:52.241Z,2.47
2022-10-23T08:32:57.770Z,3.20
2022-10-23T08:35:31.651Z,2.72
2022-10-23T08:38:05.328Z,2.63
2022-10-23T08:40:40.590Z,2.80
2022-10-23T08:43:40.875Z,2.30
2022-10-23T08:46:18.574Z,2.33
2022-10-23T08:49:07.004Z,2.80
2022-10-23T08:51:44.645Z,2.08
2022-10-23T08:54:40.425Z,2.33
2022-10-23T08:57:16.536Z,2.50
2022-10-23T08:59:56.310Z,2.65
2022-10-23T09:02:39.633Z,2.75
2022-10-23T09:05:21.080Z,2.70
2022-10-23T09:08:38.166Z,2.67
2022-10-23T09:11:40.462Z,3.25
2022-10-23T09:14:28.091Z,2.90
2022-10-23T09:17:16.586Z,2.87
2022-10-23T09:19:50.855Z,3.87
2022-10-23T09:22:23.886Z,2.92
2022-10-23T09:24:57.174Z,2.80
2022-10-23T09:27:30.551Z,3.77
2022-10-23T09:30:03.886Z,5.23
2022-10-23T09:32:39.346Z,2.90
2022-10-23T09:35:23.111Z,3.33
2022-10-23T09:37:56.276Z,4.47
2022-10-23T09:40:43.059Z,3.45
2022-10-23T09:43:22.269Z,2.52
2022-10-23T09:46:05.248Z,3.12
2022-10-23T09:48:42.677Z,2.92
2022-10-23T09:51:22.333Z,3.00
2022-10-23T09:53:58.240Z,2.22
2022-10-23T09:56:42.392Z,2.33
2022-10-23T09:59:21.930Z,2.20
2022-10-23T10:01:58.793Z,2.55
2022-10-23T10:04:45.774Z,2.58
2022-10-23T10:07:30.299Z,3.50
2022-10-23T10:12:59.408Z,2.20
2022-10-23T10:15:43.490Z,3.65
2022-10-23T10:18:39.700Z,2.27
2022-10-23T10:21:30.220Z,2.85
2022-10-23T10:24:11.672Z,2.83
2022-10-23T10:27:06.964Z,2.60
2022-10-23T10:30:04.931Z,2.58
2022-10-23T10:33:06.646Z,2.10
2022-10-23T10:36:02.746Z,2.72
2022-10-23T10:39:03.751Z,2.40
2022-10-23T10:42:11.449Z,2.12
2022-10-23T10:45:14.844Z,2.58
2022-10-23T10:48:10.385Z,2.22
2022-10-23T10:51:05.435Z,2.12
2022-10-23T10:54:10.747Z,2.05
2022-10-23T10:56:45.587Z,2.65
2022-10-23T10:59:29.001Z,2.22
2022-10-23T11:02:37.021Z,2.42
2022-10-23T11:05:29.866Z,2.85
2022-10-23T11:08:27.050Z,2.70
2022-10-23T11:11:11.263Z,2.33
2022-10-23T11:13:46.441Z,3.33
2022-10-23T11:16:36.935Z,4.20
2022-10-23T11:19:29.465Z,3.75
2022-10-23T11:22:30.427Z,3.37
2022-10-23T11:25:14.340Z,2.95
2022-10-23T11:28:22.519Z,2.55
2022-10-23T11:31:20.258Z,3.00
2022-10-23T11:34:23.630Z,2.60
2022-10-23T11:37:02.713Z,3.30
2022-10-23T11:39:38.686Z,3.00
2022-10-23T11:42:21.596Z,3.17
2022-10-23T11:44:54.707Z,4.50
2022-10-23T11:47:40.688Z,4.28
2022-10-23T11:50:16.861Z,5.72
2022-10-23T11:53:20.886Z,4.25
2022-10-23T11:55:41.839Z,4.62
2022-10-23T11:58:26.170Z,4.58
2022-10-23T12:01:08.968Z,3.35
2022-10-23T12:03:55.773Z,3.42
2022-10-23T12:06:34.826Z,3.80
2022-10-23T12:09:12.571Z,3.30
2022-10-23T12:11:52.981Z,3.70
2022-10-23T12:14:36.051Z,2.90
2022-10-23T12:17:27.593Z,3.10
2022-10-23T12:20:11.545Z,3.77
2022-10-23T12:22:56.249Z,3.20
2022-10-23T12:25:54.240Z,3.25
2022-10-23T12:29:04.028Z,3.00
2022-10-23T12:32:03.141Z,3.50
2022-10-23T12:35:02.090Z,2.60
2022-10-23T12:38:17.123Z,2.70
2022-10-23T12:41:12.657Z,4.00
2022-10-23T12:44:00.190Z,4.30
2022-10-23T12:46:44.075Z,3.95
2022-10-23T12:49:24.877Z,4.12
2022-10-23T12:52:06.354Z,3.27
2022-10-23T12:54:42.906Z,4.25
2022-10-23T12:57:28.779Z,3.62
2022-10-23T13:00:07.115Z,3.47
2022-10-23T13:02:41.183Z,3.60
2022-10-23T13:05:18.921Z,3.72
2022-10-23T13:07:54.547Z,3.42
2022-10-23T13:10:31.217Z,3.35
2022-10-23T13:13:08.244Z,3.67
2022-10-23T13:15:45.421Z,3.30
2022-10-23T13:18:19.929Z,3.35
2022-10-23T13:20:59.169Z,4.12
2022-10-23T13:23:34.760Z,4.10
2022-10-23T13:26:26.904Z,4.50
2022-10-23T13:29:07.367Z,3.80
2022-10-23T13:31:38.647Z,8.03
2022-10-23T13:34:19.282Z,8.55
2022-10-23T13:37:00.570Z,6.03
2022-10-23T13:39:35.719Z,5.35
2022-10-23T13:42:16.193Z,4.05
2022-10-23T13:44:49.674Z,3.70
2022-10-23T13:47:23.215Z,3.33
2022-10-23T13:49:56.451Z,3.62
2022-10-23T13:52:29.769Z,3.67
2022-10-23T13:55:03.137Z,3.77
2022-10-23T13:57:36.439Z,3.45
2022-10-23T14:00:11.530Z,4.00
2022-10-23T14:02:46.069Z,3.25
2022-10-23T14:05:19.207Z,4.67
2022-10-23T14:07:53.005Z,3.52
2022-10-23T14:10:27.760Z,3.63
2022-10-23T14:13:01.039Z,3.50
2022-10-23T14:15:34.773Z,3.67
2022-10-23T14:18:08.584Z,3.62
2022-10-23T14:20:42.061Z,3.67
2022-10-23T14:23:16.768Z,3.00
2022-10-23T14:25:50.058Z,3.47
2022-10-23T14:28:23.501Z,6.60
2022-10-23T14:30:56.789Z,11.63
2022-10-23T14:36:03.483Z,10.13
2022-10-23T14:38:37.075Z,13.23
2022-10-23T14:41:17.794Z,7.65
2022-10-23T14:43:51.397Z,5.72
2022-10-23T14:46:26.073Z,5.58
2022-10-23T14:49:02.443Z,5.10
2022-10-23T14:51:35.621Z,4.58
2022-10-23T14:54:10.222Z,5.70
2022-10-23T14:56:43.180Z,6.58
2022-10-23T14:59:16.407Z,9.75
2022-10-23T15:01:49.723Z,5.10
2022-10-23T15:06:56.340Z,5.45
2022-10-23T15:12:04.867Z,6.58
2022-10-23T15:14:38.831Z,5.00
2022-10-23T15:17:15.786Z,3.47
2022-10-23T15:19:46.938Z,3.95
2022-10-23T15:22:20.348Z,3.20
2022-10-23T15:24:53.520Z,3.83
2022-10-23T15:27:26.817Z,3.62
2022-10-23T15:29:59.954Z,3.55
2022-10-23T15:32:33.273Z,4.00
2022-10-23T15:35:07.312Z,4.05
2022-10-23T15:37:40.474Z,3.40
2022-10-23T15:40:14.588Z,4.35
2022-10-23T15:42:47.906Z,3.58
2022-10-23T15:45:21.239Z,3.90
2022-10-23T15:47:55.292Z,3.40
2022-10-23T15:50:28.864Z,3.15
2022-10-23T15:53:02.237Z,3.52
2022-10-23T15:58:08.658Z,3.62
2022-10-23T16:00:42.085Z,3.62
2022-10-23T16:03:15.342Z,4.15
2022-10-23T16:05:49.462Z,3.37
2022-10-23T16:08:24.545Z,3.33
2022-10-23T16:13:31.904Z,2.83
2022-10-23T16:16:09.187Z,3.62
2022-10-23T16:18:43.966Z,3.27
2022-10-23T16:21:23.928Z,3.58
2022-10-23T16:24:00.480Z,3.17
2022-10-23T16:26:34.386Z,3.58
2022-10-23T16:29:10.233Z,3.22
2022-10-23T16:31:43.576Z,3.80
2022-10-23T16:34:17.082Z,3.77
2022-10-23T16:36:50.960Z,3.47
2022-10-23T16:39:26.953Z,4.33
2022-10-23T16:45:01.002Z,4.12
2022-10-23T16:47:35.120Z,3.50
2022-10-23T16:50:09.142Z,4.33
2022-10-23T16:52:46.956Z,3.65
2022-10-23T16:55:21.079Z,3.40
2022-10-23T16:57:54.267Z,4.25
2022-10-23T17:00:30.639Z,2.45
2022-10-23T17:03:05.894Z,2.40
2022-10-23T17:05:39.953Z,2.52
2022-10-23T17:08:13.168Z,2.25
2022-10-23T17:10:47.043Z,2.42
2022-10-23T17:13:20.892Z,2.50
2022-10-23T17:15:54.796Z,2.62
2022-10-23T17:18:29.278Z,2.12
2022-10-23T17:21:03.135Z,2.52
2022-10-23T17:23:38.515Z,3.03
2022-10-23T17:26:14.410Z,2.70
2022-10-23T17:28:47.992Z,2.92
2022-10-23T17:31:28.912Z,3.35
2022-10-23T17:34:06.891Z,2.55
2022-10-23T17:36:45.587Z,3.27
2022-10-23T17:39:23.942Z,3.12
2022-10-23T17:41:58.221Z,3.25
2022-10-23T17:44:34.537Z,3.92
2022-10-23T17:47:09.006Z,3.55
2022-10-23T17:49:45.514Z,3.10
2022-10-23T17:52:18.395Z,4.08
2022-10-23T17:57:28.202Z,3.47
2022-10-23T18:00:04.731Z,2.98
2022-10-23T18:02:39.492Z,3.60
2022-10-23T18:05:13.126Z,4.15
2022-10-23T18:07:48.633Z,3.80
2022-10-23T18:10:22.003Z,3.58
2022-10-23T18:12:54.954Z,4.87
2022-10-23T18:15:27.968Z,8.93
2022-10-23T18:18:03.367Z,17.45
2022-10-23T18:20:42.344Z,12.88
2022-10-23T18:23:16.293Z,7.65
2022-10-23T18:25:49.704Z,7.33
2022-10-23T18:28:22.909Z,7.10
2022-10-23T18:30:57.241Z,6.17
2022-10-23T18:33:30.399Z,6.30
2022-10-23T18:36:03.433Z,7.25
2022-10-23T18:38:37.489Z,6.87
2022-10-23T18:41:10.355Z,6.67
2022-10-23T18:43:44.891Z,6.47
2022-10-23T18:46:18.211Z,6.45
2022-10-23T18:48:53.846Z,7.97
2022-10-23T18:51:30.357Z,7.75
2022-10-23T18:54:10.274Z,6.47
2022-10-23T18:56:43.583Z,6.75
2022-10-23T18:59:20.461Z,5.92
2022-10-23T19:01:53.666Z,6.60
2022-10-23T19:04:26.660Z,5.85
2022-10-23T19:07:00.541Z,6.00
2022-10-23T19:09:33.461Z,5.45
2022-10-23T19:12:07.299Z,5.62
2022-10-23T19:17:26.524Z,6.55
2022-10-23T19:20:13.878Z,7.35
2022-10-23T19:22:49.929Z,10.78
2022-10-23T19:25:29.299Z,10.35
2022-10-23T19:28:04.585Z,5.70
2022-10-23T19:30:37.697Z,5.60
2022-10-23T19:33:10.577Z,5.00
2022-10-23T19:35:44.161Z,3.50
2022-10-23T19:38:17.370Z,4.15
2022-10-23T19:40:50.251Z,3.33
2022-10-23T19:43:23.037Z,3.98
2022-10-23T19:45:55.857Z,4.47
2022-10-23T19:48:29.051Z,6.37
2022-10-23T19:51:02.210Z,5.85
2022-10-23T19:53:36.518Z,6.23
2022-10-23T19:56:12.147Z,6.17
2022-10-23T19:58:44.752Z,5.80
2022-10-23T20:01:21.404Z,6.15
2022-10-23T20:03:55.873Z,5.87
2022-10-23T20:06:32.339Z,5.42
2022-10-23T20:09:10.928Z,6.55
2022-10-23T20:11:45.534Z,5.80
2022-10-23T20:14:20.109Z,6.30
2022-10-23T20:16:55.931Z,9.80
2022-10-23T20:19:28.930Z,29.23
2022-10-23T20:22:02.060Z,21.97
2022-10-23T20:24:35.091Z,12.28
2022-10-23T20:27:11.379Z,14.33
2022-10-23T20:29:45.107Z,15.15
2022-10-23T20:32:18.352Z,16.10
2022-10-23T20:34:53.328Z,15.08
2022-10-23T20:37:26.082Z,14.43
2022-10-23T20:39:59.509Z,16.48
2022-10-23T20:42:32.475Z,14.33
2022-10-23T20:45:06.575Z,14.55
2022-10-23T20:47:39.409Z,10.98
2022-10-23T20:50:12.416Z,14.47
2022-10-23T20:52:45.579Z,13.78
2022-10-23T20:55:19.335Z,13.70
2022-10-23T20:57:52.478Z,11.05
2022-10-23T21:00:26.670Z,13.72
2022-10-23T21:05:34.781Z,12.82
2022-10-23T21:08:08.035Z,12.00
2022-10-23T21:10:48.610Z,11.35
2022-10-23T21:13:21.999Z,9.65
2022-10-23T21:15:56.294Z,9.50
2022-10-23T21:18:44.993Z,8.87
2022-10-23T21:23:36.550Z,7.17
2022-10-23T21:26:09.880Z,7.15
2022-10-23T21:28:55.727Z,5.97
2022-10-23T21:31:24.128Z,7.58
2022-10-23T21:33:57.220Z,6.28
2022-10-23T21:36:34.234Z,6.83
2022-10-23T21:39:07.973Z,6.55
2022-10-23T21:41:40.815Z,7.45
2022-10-23T21:44:15.809Z,5.80
2022-10-23T21:49:20.805Z,6.83
2022-10-23T21:51:55.340Z,7.10
2022-10-23T21:54:28.934Z,7.40
2022-10-23T21:57:03.540Z,6.83
2022-10-23T21:59:36.440Z,7.08
2022-10-23T22:02:09.800Z,8.28
2022-10-23T22:04:43.087Z,7.05
2022-10-23T22:07:16.597Z,7.85
2022-10-23T22:09:49.783Z,8.25
2022-10-23T22:12:23.716Z,8.38
2022-10-23T22:14:56.579Z,9.03
2022-10-23T22:17:30.195Z,8.90
2022-10-23T22:20:03.121Z,9.25
2022-10-23T22:22:36.231Z,10.23
2022-10-23T22:25:10.267Z,10.32
2022-10-23T22:27:45.038Z,11.78
2022-10-23T22:30:18.424Z,15.38
2022-10-23T22:32:51.279Z,14.07
2022-10-23T22:35:24.174Z,12.05
2022-10-23T22:37:57.488Z,12.93
2022-10-23T22:40:30.376Z,10.80
2022-10-23T22:43:03.452Z,10.72
2022-10-23T22:45:37.842Z,11.40
2022-10-23T22:48:10.677Z,9.25
2022-10-23T22:50:43.543Z,10.48
2022-10-23T22:53:17.058Z,10.18
2022-10-23T22:55:49.968Z,10.45
2022-10-23T22:58:24.213Z,9.13
2022-10-23T23:01:07.769Z,8.85
2022-10-23T23:03:41.850Z,9.68
2022-10-23T23:06:15.662Z,10.03
2022-10-23T23:08:49.828Z,10.15
2022-10-23T23:11:24.263Z,9.48
2022-10-23T23:13:58.674Z,8.63
2022-10-23T23:16:33.665Z,9.55
2022-10-23T23:19:07.804Z,9.18
2022-10-23T23:21:41.127Z,10.30
2022-10-23T23:24:14.804Z,13.10
2022-10-23T23:26:48.755Z,13.25
2022-10-23T23:29:22.032Z,14.18
2022-10-23T23:31:55.603Z,13.70
2022-10-23T23:34:28.650Z,16.23
2022-10-23T23:37:01.264Z,12.95
2022-10-23T23:39:34.506Z,11.03
2022-10-23T23:42:07.434Z,11.93
2022-10-23T23:44:50.209Z,15.23
2022-10-23T23:47:15.608Z,14.07
2022-10-23T23:49:48.713Z,14.38
2022-10-23T23:52:22.102Z,12.98
2022-10-23T23:54:55.142Z,11.35
2022-10-23T23:57:29.714Z,13.32
